Terminal Aerodrome Forecast
Issued by NWS

Home | Current Version | Previous Version | Text Only | Print | Product List | Glossary On
Versions: 1 2 3 4 5 6 7 8 9 10 11 12 13
307
FTUS46 KSGX 230520
TAFONT
TAF
KONT 230520Z 2306/2412 29005KT P6SM SCT200
     FM232000 26012KT P6SM SCT200
     FM240400 26006KT P6SM SKC=

USA.gov is the U.S. government's official web portal to all federal, state and local government web resources and services.